createdAt,value
2023-01-31T00:03:04.353Z,14.90
2023-01-31T00:06:50.223Z,17.80
2023-01-31T00:10:39.435Z,17.20
2023-01-31T00:14:11.724Z,17.70
2023-01-31T00:17:36.949Z,16.60
2023-01-31T00:21:10.657Z,17.40
2023-01-31T00:25:01.150Z,18.40
2023-01-31T00:28:45.137Z,14.60
2023-01-31T00:32:33.212Z,16.70
2023-01-31T00:36:07.030Z,15.70
2023-01-31T00:39:37.388Z,18.70
2023-01-31T00:43:02.060Z,13.30
2023-01-31T00:46:50.052Z,18.30
2023-01-31T00:50:31.771Z,15.70
2023-01-31T00:53:59.653Z,14.10
2023-01-31T00:57:32.610Z,15.10
2023-01-31T01:01:21.888Z,16.70
2023-01-31T01:05:02.902Z,14.30
2023-01-31T01:08:34.690Z,13.20
2023-01-31T01:12:24.111Z,13.30
2023-01-31T01:15:50.931Z,15.40
2023-01-31T01:19:24.370Z,14.40
2023-01-31T01:23:02.562Z,15.40
2023-01-31T01:26:35.124Z,16.40
2023-01-31T01:30:10.836Z,12.80
2023-01-31T01:33:42.730Z,13.00
2023-01-31T01:37:30.640Z,16.00
2023-01-31T01:41:08.499Z,12.20
2023-01-31T01:44:47.781Z,11.00
2023-01-31T01:48:36.739Z,14.90
2023-01-31T01:52:25.862Z,16.10
2023-01-31T01:56:17.658Z,16.70
2023-01-31T02:00:09.397Z,11.30
2023-01-31T02:03:43.739Z,13.20
2023-01-31T02:07:08.112Z,13.40
2023-01-31T02:10:38.461Z,14.50
2023-01-31T02:14:27.475Z,11.70
2023-01-31T02:18:16.610Z,12.60
2023-01-31T02:22:14.411Z,11.50
2023-01-31T02:26:08.275Z,14.00
2023-01-31T02:30:20.284Z,11.00
2023-01-31T02:34:05.024Z,14.60
2023-01-31T02:38:01.829Z,16.00
2023-01-31T02:41:53.356Z,11.10
2023-01-31T02:45:54.218Z,11.70
2023-01-31T02:49:55.402Z,15.50
2023-01-31T02:53:37.355Z,11.70
2023-01-31T02:57:12.862Z,16.10
2023-01-31T03:00:45.822Z,13.00
2023-01-31T03:04:08.779Z,12.90
2023-01-31T03:08:00.232Z,14.90
2023-01-31T03:11:45.101Z,15.90
2023-01-31T03:15:26.157Z,13.80
2023-01-31T03:19:15.311Z,12.90
2023-01-31T03:22:46.561Z,16.00
2023-01-31T03:26:24.355Z,18.10
2023-01-31T03:30:13.573Z,19.60
2023-01-31T03:34:05.266Z,14.80
2023-01-31T03:37:57.300Z,16.30
2023-01-31T03:41:37.969Z,16.60
2023-01-31T03:45:22.142Z,14.80
2023-01-31T03:49:03.949Z,15.10
2023-01-31T03:52:27.996Z,15.00
2023-01-31T03:55:54.875Z,15.50
2023-01-31T03:59:20.244Z,17.50
2023-01-31T04:02:43.680Z,13.70
2023-01-31T04:06:17.801Z,16.80
2023-01-31T04:09:39.675Z,21.30
2023-01-31T04:13:19.407Z,15.50
2023-01-31T04:17:01.656Z,13.50
2023-01-31T04:20:35.868Z,14.50
2023-01-31T04:24:14.359Z,13.00
2023-01-31T04:27:52.760Z,14.50
2023-01-31T04:31:35.312Z,20.60
2023-01-31T04:35:24.281Z,14.20
2023-01-31T04:39:02.577Z,18.70
2023-01-31T04:42:44.175Z,17.10
2023-01-31T04:46:23.235Z,15.80
2023-01-31T04:50:12.463Z,19.30
2023-01-31T04:53:47.861Z,13.60
2023-01-31T04:57:37.056Z,16.10
2023-01-31T05:01:25.569Z,12.40
2023-01-31T05:04:59.723Z,19.30
2023-01-31T05:08:49.172Z,22.40
2023-01-31T05:12:23.465Z,21.20
2023-01-31T05:16:02.259Z,20.50
2023-01-31T05:19:40.337Z,14.40
2023-01-31T05:23:21.875Z,18.40
2023-01-31T05:27:03.490Z,15.80
2023-01-31T05:30:36.992Z,13.20
2023-01-31T05:33:53.995Z,17.40
2023-01-31T05:37:32.623Z,20.40
2023-01-31T05:40:55.770Z,15.30
2023-01-31T05:44:24.424Z,24.20
2023-01-31T05:47:33.570Z,17.80
2023-01-31T05:51:03.238Z,16.40
2023-01-31T05:54:24.545Z,19.10
2023-01-31T05:57:16.093Z,20.20
2023-01-31T06:00:56.146Z,21.30
2023-01-31T06:04:46.136Z,20.10
2023-01-31T06:08:13.588Z,20.10
2023-01-31T06:12:02.660Z,17.00
2023-01-31T06:15:52.405Z,18.90
2023-01-31T06:19:30.652Z,15.60
2023-01-31T06:23:10.154Z,20.80
2023-01-31T06:26:24.074Z,17.60
2023-01-31T06:29:49.841Z,21.10
2023-01-31T06:33:47.445Z,14.70
2023-01-31T06:37:10.372Z,18.50
2023-01-31T06:40:58.882Z,18.40
2023-01-31T06:44:37.785Z,13.10
2023-01-31T06:48:06.970Z,19.30
2023-01-31T06:51:51.552Z,21.10
2023-01-31T06:55:33.012Z,20.60
2023-01-31T06:59:12.819Z,16.10
2023-01-31T07:02:39.646Z,16.20
2023-01-31T07:06:14.035Z,19.10
2023-01-31T07:09:25.436Z,20.80
2023-01-31T07:13:08.662Z,18.60
2023-01-31T07:16:36.352Z,21.10
2023-01-31T07:20:01.918Z,20.10
2023-01-31T07:23:49.431Z,17.40
2023-01-31T07:27:15.386Z,20.80
2023-01-31T07:30:55.823Z,19.50
2023-01-31T07:34:26.149Z,18.60
2023-01-31T07:37:46.028Z,20.20
2023-01-31T07:41:27.086Z,20.90
2023-01-31T07:45:21.694Z,20.70
2023-01-31T07:49:02.299Z,17.80
2023-01-31T07:52:26.717Z,21.90
2023-01-31T07:56:15.893Z,20.60
2023-01-31T08:00:07.561Z,19.30
2023-01-31T08:04:10.777Z,16.90
2023-01-31T08:07:57.837Z,17.70
2023-01-31T08:11:29.328Z,21.70
2023-01-31T08:15:19.072Z,18.30
2023-01-31T08:19:01.113Z,22.00
2023-01-31T08:22:42.895Z,21.90
2023-01-31T08:26:26.548Z,22.30
2023-01-31T08:29:55.650Z,19.10
2023-01-31T08:33:08.933Z,19.60
2023-01-31T08:36:58.802Z,22.40
2023-01-31T08:40:24.125Z,21.60
2023-01-31T08:44:08.883Z,17.00
2023-01-31T08:47:56.483Z,17.00
2023-01-31T08:51:46.234Z,20.20
2023-01-31T08:55:35.654Z,19.50
2023-01-31T08:59:17.421Z,19.80
2023-01-31T09:03:07.042Z,18.70
2023-01-31T09:06:34.778Z,15.40
2023-01-31T09:10:13.612Z,20.80
2023-01-31T09:13:45.663Z,16.20
2023-01-31T09:17:04.400Z,15.10
2023-01-31T09:20:20.550Z,15.70
2023-01-31T09:23:37.197Z,18.40
2023-01-31T09:27:11.064Z,12.50
2023-01-31T09:30:56.513Z,13.10
2023-01-31T09:34:02.725Z,16.50
2023-01-31T09:37:40.499Z,13.80
2023-01-31T09:41:05.970Z,18.40
2023-01-31T09:45:08.997Z,16.20
2023-01-31T09:48:48.883Z,17.60
2023-01-31T09:52:30.837Z,16.70
2023-01-31T09:56:17.941Z,15.60
2023-01-31T10:00:01.158Z,14.70
2023-01-31T10:03:57.963Z,13.40
2023-01-31T10:07:56.948Z,15.20
2023-01-31T10:11:55.660Z,21.30
2023-01-31T10:15:53.692Z,13.60
2023-01-31T10:19:43.530Z,13.50
2023-01-31T10:23:29.297Z,14.60
2023-01-31T10:27:17.923Z,18.30
2023-01-31T10:31:08.647Z,17.60
2023-01-31T10:35:04.183Z,17.60
2023-01-31T10:38:54.131Z,17.00
2023-01-31T10:42:40.807Z,16.40
2023-01-31T10:46:30.870Z,13.40
2023-01-31T10:49:58.504Z,22.00
2023-01-31T10:53:58.190Z,15.20
2023-01-31T10:57:45.912Z,20.80
2023-01-31T11:01:35.405Z,12.80
2023-01-31T11:05:27.514Z,17.80
2023-01-31T11:09:13.250Z,20.60
2023-01-31T11:13:02.590Z,17.60
2023-01-31T11:16:52.562Z,21.40
2023-01-31T11:21:08.045Z,16.00
2023-01-31T11:24:58.520Z,13.20
2023-01-31T11:28:47.639Z,18.00
2023-01-31T11:32:36.711Z,13.10
2023-01-31T11:36:19.121Z,15.30
2023-01-31T11:40:10.605Z,16.40
2023-01-31T11:43:59.945Z,14.50
2023-01-31T11:47:49.014Z,15.10
2023-01-31T11:51:45.572Z,17.70
2023-01-31T11:55:28.187Z,14.40
2023-01-31T11:59:10.787Z,18.10
2023-01-31T12:03:00.441Z,16.70
2023-01-31T12:06:47.081Z,14.50
2023-01-31T12:10:31.402Z,17.90
2023-01-31T12:14:26.641Z,17.30
2023-01-31T12:18:16.234Z,17.90
2023-01-31T12:22:12.080Z,19.80
2023-01-31T12:26:13.392Z,14.70
2023-01-31T12:30:01.621Z,16.70
2023-01-31T12:34:07.751Z,16.50
2023-01-31T12:37:56.511Z,12.60
2023-01-31T12:41:41.680Z,14.20
2023-01-31T12:45:28.725Z,10.70
2023-01-31T12:49:13.471Z,8.10
2023-01-31T12:53:18.022Z,9.90
2023-01-31T12:57:21.393Z,11.70
2023-01-31T13:01:26.449Z,11.20
2023-01-31T13:05:05.341Z,14.20
2023-01-31T13:09:07.846Z,14.80
2023-01-31T13:13:16.404Z,10.80
2023-01-31T13:17:20.745Z,9.50
2023-01-31T13:21:13.058Z,10.30
2023-01-31T13:25:05.215Z,11.10
2023-01-31T13:28:49.639Z,10.50
2023-01-31T13:32:36.612Z,10.90
2023-01-31T13:36:09.676Z,12.90
2023-01-31T13:39:34.457Z,12.30
2023-01-31T13:43:15.247Z,14.50
2023-01-31T13:46:31.408Z,11.10
2023-01-31T13:50:26.840Z,10.30
2023-01-31T13:53:48.415Z,10.60
2023-01-31T13:57:30.813Z,13.20
2023-01-31T14:01:15.361Z,10.50
2023-01-31T14:04:56.401Z,11.70
2023-01-31T14:08:44.921Z,13.20
2023-01-31T14:12:27.345Z,15.50
2023-01-31T14:16:27.502Z,16.80
2023-01-31T14:20:12.975Z,16.60
2023-01-31T14:24:11.412Z,15.30
2023-01-31T14:28:02.911Z,14.80
2023-01-31T14:31:28.904Z,15.90
2023-01-31T14:34:37.774Z,14.10
2023-01-31T14:38:28.370Z,19.60
2023-01-31T14:41:55.799Z,16.30
2023-01-31T14:45:07.623Z,14.80
2023-01-31T14:48:23.687Z,15.50
2023-01-31T14:51:50.435Z,12.20
2023-01-31T14:55:56.376Z,13.50
2023-01-31T14:59:39.668Z,12.80
2023-01-31T15:03:26.043Z,10.00
2023-01-31T15:06:51.975Z,11.50
2023-01-31T15:10:33.265Z,10.60
2023-01-31T15:14:32.137Z,9.90
2023-01-31T15:18:00.876Z,11.30
2023-01-31T15:21:42.316Z,14.50
2023-01-31T15:25:21.951Z,12.30
2023-01-31T15:29:11.847Z,8.50
2023-01-31T15:33:28.210Z,12.70
2023-01-31T15:37:26.457Z,12.50
2023-01-31T15:40:52.848Z,11.10
2023-01-31T15:44:36.673Z,10.50
2023-01-31T15:47:47.736Z,11.90
2023-01-31T15:51:36.826Z,12.50
2023-01-31T15:55:10.235Z,11.90
2023-01-31T15:58:47.103Z,13.80
2023-01-31T16:02:21.419Z,16.60
2023-01-31T16:05:52.192Z,17.40
2023-01-31T16:09:28.104Z,18.00
2023-01-31T16:13:00.693Z,17.70
2023-01-31T16:16:10.915Z,15.00
2023-01-31T16:19:19.098Z,13.30
2023-01-31T16:23:05.151Z,13.70
2023-01-31T16:26:45.335Z,18.70
2023-01-31T16:30:34.673Z,14.00
2023-01-31T16:33:52.204Z,15.50
2023-01-31T16:37:12.909Z,14.30
2023-01-31T16:40:40.348Z,16.40
2023-01-31T16:43:57.771Z,14.30
2023-01-31T16:47:19.091Z,12.70
2023-01-31T16:52:25.175Z,14.00
2023-01-31T16:56:21.152Z,12.10
2023-01-31T17:00:37.158Z,13.20
2023-01-31T17:04:57.106Z,11.40
2023-01-31T17:08:54.594Z,12.50
2023-01-31T17:13:03.478Z,10.90
2023-01-31T17:17:21.471Z,12.20
2023-01-31T17:21:43.382Z,9.60
2023-01-31T17:26:00.109Z,11.60
2023-01-31T17:30:01.977Z,8.80
2023-01-31T17:34:15.158Z,11.10
2023-01-31T17:38:30.130Z,11.90
2023-01-31T17:42:31.819Z,9.90
2023-01-31T17:46:42.706Z,10.50
2023-01-31T17:50:38.057Z,10.30
2023-01-31T17:54:32.827Z,9.30
2023-01-31T17:58:27.275Z,11.60
2023-01-31T18:02:57.050Z,8.60
2023-01-31T18:07:07.638Z,8.90
2023-01-31T18:11:17.820Z,9.90
2023-01-31T18:15:48.009Z,11.30
2023-01-31T18:19:59.969Z,8.70
2023-01-31T18:24:11.893Z,9.20
2023-01-31T18:28:24.621Z,8.80
2023-01-31T18:32:49.683Z,10.00
2023-01-31T18:37:20.288Z,8.30
2023-01-31T18:41:11.191Z,9.90
2023-01-31T18:45:09.174Z,9.90
2023-01-31T18:53:01.623Z,9.80
2023-01-31T18:56:10.021Z,10.30
2023-01-31T18:59:40.263Z,9.10
2023-01-31T19:02:52.515Z,8.20
2023-01-31T19:06:14.166Z,10.50
2023-01-31T19:09:26.212Z,8.20
2023-01-31T19:12:42.776Z,6.10
2023-01-31T19:16:15.494Z,6.90
2023-01-31T19:19:48.861Z,7.20
2023-01-31T19:23:42.360Z,7.30
2023-01-31T19:26:57.928Z,6.90
2023-01-31T19:30:17.391Z,10.30
2023-01-31T19:33:27.851Z,7.70
2023-01-31T19:37:15.070Z,8.90
2023-01-31T19:41:00.661Z,9.90
2023-01-31T19:44:13.818Z,10.10
2023-01-31T19:47:47.996Z,10.30
2023-01-31T19:50:47.917Z,9.00
2023-01-31T19:54:07.751Z,12.20
2023-01-31T19:57:33.148Z,9.30
2023-01-31T20:05:12.133Z,7.10
2023-01-31T20:08:42.402Z,7.80
2023-01-31T20:12:23.289Z,9.10
2023-01-31T20:15:33.916Z,8.00
2023-01-31T20:18:59.607Z,7.10
2023-01-31T20:22:33.461Z,7.00
2023-01-31T20:26:28.652Z,7.10
2023-01-31T20:30:11.055Z,7.60
2023-01-31T20:34:01.416Z,6.60
2023-01-31T20:37:43.920Z,7.20
2023-01-31T20:41:15.396Z,7.00
2023-01-31T20:44:42.138Z,6.50
2023-01-31T20:48:08.095Z,8.20
2023-01-31T20:51:45.756Z,7.10
2023-01-31T20:55:18.562Z,7.50
2023-01-31T20:58:28.017Z,7.10
2023-01-31T21:01:47.559Z,6.60
2023-01-31T21:05:09.219Z,8.50
2023-01-31T21:08:42.938Z,10.10
2023-01-31T21:12:32.292Z,8.50
2023-01-31T21:16:14.107Z,10.10
2023-01-31T21:19:56.080Z,6.70
2023-01-31T21:23:45.392Z,7.70
2023-01-31T21:27:23.784Z,5.30
2023-01-31T21:31:12.191Z,6.80
2023-01-31T21:34:53.996Z,6.00
2023-01-31T21:38:35.428Z,7.60
2023-01-31T21:42:35.829Z,3.30
2023-01-31T21:46:24.728Z,7.50
2023-01-31T21:50:14.457Z,4.30
2023-01-31T21:53:53.729Z,4.80
2023-01-31T21:57:42.943Z,6.30
2023-01-31T22:01:25.592Z,6.10
2023-01-31T22:05:15.849Z,7.50
2023-01-31T22:08:58.872Z,6.90
2023-01-31T22:12:49.372Z,9.80
2023-01-31T22:16:38.499Z,8.40
2023-01-31T22:20:28.996Z,12.50
2023-01-31T22:24:03.012Z,7.40
2023-01-31T22:27:52.202Z,9.80
2023-01-31T22:31:41.600Z,7.80
2023-01-31T22:35:30.980Z,6.50
2023-01-31T22:39:20.160Z,8.90
2023-01-31T22:43:02.460Z,7.40
2023-01-31T22:46:41.555Z,6.20
2023-01-31T22:50:29.532Z,5.60
2023-01-31T22:54:10.896Z,6.70
2023-01-31T22:57:59.955Z,6.20
2023-01-31T23:01:55.315Z,7.60
2023-01-31T23:05:44.287Z,8.30
2023-01-31T23:09:33.854Z,11.70
2023-01-31T23:13:25.725Z,8.80
2023-01-31T23:17:15.906Z,7.90
2023-01-31T23:21:08.362Z,9.90
2023-01-31T23:24:56.509Z,11.10
2023-01-31T23:28:30.933Z,11.20
2023-01-31T23:32:18.933Z,13.20
2023-01-31T23:36:08.455Z,9.10
2023-01-31T23:39:57.753Z,10.30
2023-01-31T23:44:16.868Z,10.50
2023-01-31T23:48:47.391Z,17.10
2023-01-31T23:53:17.733Z,14.40
2023-01-31T23:57:46.808Z,24.60
